sensor_id;sensor_type;location;lat;lon;timestamp;pressure;altitude;pressure_sealevel;temperature
64624;BMP280;51031;50.912;9.242;2022-07-09T00:00:10;100274.72;;;26.94
64624;BMP280;51031;50.912;9.242;2022-07-09T00:00:26;100259.41;;;26.95
64624;BMP280;51031;50.912;9.242;2022-07-09T00:00:42;100261.25;;;26.94
64624;BMP280;51031;50.912;9.242;2022-07-09T00:00:58;100262.09;;;26.95
64624;BMP280;51031;50.912;9.242;2022-07-09T00:01:14;100262.97;;;26.95
64624;BMP280;51031;50.912;9.242;2022-07-09T00:01:31;100262.81;;;26.97
64624;BMP280;51031;50.912;9.242;2022-07-09T00:01:46;100258.56;;;26.94
64624;BMP280;51031;50.912;9.242;2022-07-09T00:02:03;100261.25;;;26.94
64624;BMP280;51031;50.912;9.242;2022-07-09T00:02:18;100260.41;;;26.94
64624;BMP280;51031;50.912;9.242;2022-07-09T00:02:34;100262.28;;;26.93
64624;BMP280;51031;50.912;9.242;2022-07-09T00:02:50;100265.81;;;26.94
64624;BMP280;51031;50.912;9.242;2022-07-09T00:03:07;100256.06;;;26.93
64624;BMP280;51031;50.912;9.242;2022-07-09T00:03:23;100257.91;;;26.92
64624;BMP280;51031;50.912;9.242;2022-07-09T00:03:40;100257.06;;;26.92
64624;BMP280;51031;50.912;9.242;2022-07-09T00:03:56;100259.75;;;26.92
64624;BMP280;51031;50.912;9.242;2022-07-09T00:04:13;100265.13;;;26.92
64624;BMP280;51031;50.912;9.242;2022-07-09T00:04:29;100253.50;;;26.91
64624;BMP280;51031;50.912;9.242;2022-07-09T00:04:45;100258.88;;;26.91
64624;BMP280;51031;50.912;9.242;2022-07-09T00:05:01;100255.34;;;26.91
64624;BMP280;51031;50.912;9.242;2022-07-09T00:05:16;100258.03;;;26.91
64624;BMP280;51031;50.912;9.242;2022-07-09T00:05:32;100261.75;;;26.90
64624;BMP280;51031;50.912;9.242;2022-07-09T00:05:49;100261.75;;;26.90
64624;BMP280;51031;50.912;9.242;2022-07-09T00:06:05;100262.56;;;26.90
64624;BMP280;51031;50.912;9.242;2022-07-09T00:06:21;100257.38;;;26.89
64624;BMP280;51031;50.912;9.242;2022-07-09T00:06:37;100260.06;;;26.89
64624;BMP280;51031;50.912;9.242;2022-07-09T00:06:52;100265.44;;;26.89
64624;BMP280;51031;50.912;9.242;2022-07-09T00:07:09;100263.72;;;26.88
64624;BMP280;51031;50.912;9.242;2022-07-09T00:07:25;100262.88;;;26.87
64624;BMP280;51031;50.912;9.242;2022-07-09T00:07:42;100261.19;;;26.86
64624;BMP280;51031;50.912;9.242;2022-07-09T00:07:57;100255.81;;;26.86
64624;BMP280;51031;50.912;9.242;2022-07-09T00:08:13;100261.19;;;26.86
64624;BMP280;51031;50.912;9.242;2022-07-09T00:08:29;100260.50;;;26.84
64624;BMP280;51031;50.912;9.242;2022-07-09T00:08:46;100262.34;;;26.84
64624;BMP280;51031;50.912;9.242;2022-07-09T00:09:02;100260.38;;;26.86
64624;BMP280;51031;50.912;9.242;2022-07-09T00:09:18;100264.19;;;26.83
64624;BMP280;51031;50.912;9.242;2022-07-09T00:09:33;100260.50;;;26.84
64624;BMP280;51031;50.912;9.242;2022-07-09T00:09:49;100255.28;;;26.83
64624;BMP280;51031;50.912;9.242;2022-07-09T00:10:07;100249.06;;;26.82
64624;BMP280;51031;50.912;9.242;2022-07-09T00:10:23;100255.28;;;26.83
64624;BMP280;51031;50.912;9.242;2022-07-09T00:10:39;100257.13;;;26.82
64624;BMP280;51031;50.912;9.242;2022-07-09T00:10:55;100262.66;;;26.81
64624;BMP280;51031;50.912;9.242;2022-07-09T00:11:11;100259.97;;;26.81
64624;BMP280;51031;50.912;9.242;2022-07-09T00:11:27;100255.59;;;26.80
64624;BMP280;51031;50.912;9.242;2022-07-09T00:11:43;100255.59;;;26.80
64624;BMP280;51031;50.912;9.242;2022-07-09T00:11:59;100252.06;;;26.79
64624;BMP280;51031;50.912;9.242;2022-07-09T00:12:15;100251.22;;;26.79
64624;BMP280;51031;50.912;9.242;2022-07-09T00:12:30;100253.91;;;26.79
64624;BMP280;51031;50.912;9.242;2022-07-09T00:12:47;100251.22;;;26.79
64624;BMP280;51031;50.912;9.242;2022-07-09T00:13:03;100248.53;;;26.79
64624;BMP280;51031;50.912;9.242;2022-07-09T00:13:19;100251.22;;;26.79
64624;BMP280;51031;50.912;9.242;2022-07-09T00:13:35;100264.66;;;26.79
64624;BMP280;51031;50.912;9.242;2022-07-09T00:13:52;100253.06;;;26.78
64624;BMP280;51031;50.912;9.242;2022-07-09T00:14:08;100253.22;;;26.77
64624;BMP280;51031;50.912;9.242;2022-07-09T00:14:24;100249.69;;;26.76
64624;BMP280;51031;50.912;9.242;2022-07-09T00:14:40;100248.84;;;26.76
64624;BMP280;51031;50.912;9.242;2022-07-09T00:14:56;100256.91;;;26.76
64624;BMP280;51031;50.912;9.242;2022-07-09T00:15:12;100256.91;;;26.76
64624;BMP280;51031;50.912;9.242;2022-07-09T00:15:28;100254.22;;;26.76
64624;BMP280;51031;50.912;9.242;2022-07-09T00:15:43;100256.91;;;26.76
64624;BMP280;51031;50.912;9.242;2022-07-09T00:16:00;100258.75;;;26.75
64624;BMP280;51031;50.912;9.242;2022-07-09T00:16:16;100254.34;;;26.74
64624;BMP280;51031;50.912;9.242;2022-07-09T00:16:32;100253.38;;;26.75
64624;BMP280;51031;50.912;9.242;2022-07-09T00:16:48;100248.00;;;26.75
64624;BMP280;51031;50.912;9.242;2022-07-09T00:17:04;100251.53;;;26.76
64624;BMP280;51031;50.912;9.242;2022-07-09T00:17:20;100252.53;;;26.75
64624;BMP280;51031;50.912;9.242;2022-07-09T00:17:37;100255.06;;;26.76
64624;BMP280;51031;50.912;9.242;2022-07-09T00:17:53;100256.06;;;26.75
64624;BMP280;51031;50.912;9.242;2022-07-09T00:18:08;100253.38;;;26.75
64624;BMP280;51031;50.912;9.242;2022-07-09T00:18:24;100256.06;;;26.75
64624;BMP280;51031;50.912;9.242;2022-07-09T00:18:40;100250.81;;;26.74
64624;BMP280;51031;50.912;9.242;2022-07-09T00:18:56;100255.22;;;26.75
64624;BMP280;51031;50.912;9.242;2022-07-09T00:19:13;100253.50;;;26.74
64624;BMP280;51031;50.912;9.242;2022-07-09T00:19:29;100254.53;;;26.73
64624;BMP280;51031;50.912;9.242;2022-07-09T00:19:47;100258.06;;;26.73
64624;BMP280;51031;50.912;9.242;2022-07-09T00:20:06;100249.16;;;26.73
64624;BMP280;51031;50.912;9.242;2022-07-09T00:20:22;100249.16;;;26.73
64624;BMP280;51031;50.912;9.242;2022-07-09T00:20:38;100256.38;;;26.73
64624;BMP280;51031;50.912;9.242;2022-07-09T00:20:55;100257.22;;;26.73
64624;BMP280;51031;50.912;9.242;2022-07-09T00:21:11;100251.84;;;26.73
64624;BMP280;51031;50.912;9.242;2022-07-09T00:21:27;100257.22;;;26.73
64624;BMP280;51031;50.912;9.242;2022-07-09T00:21:42;100257.22;;;26.73
64624;BMP280;51031;50.912;9.242;2022-07-09T00:21:58;100254.53;;;26.73
64624;BMP280;51031;50.912;9.242;2022-07-09T00:22:14;100251.00;;;26.73
64624;BMP280;51031;50.912;9.242;2022-07-09T00:22:31;100258.22;;;26.72
64624;BMP280;51031;50.912;9.242;2022-07-09T00:22:47;100260.91;;;26.72
64624;BMP280;51031;50.912;9.242;2022-07-09T00:23:03;100251.13;;;26.71
64624;BMP280;51031;50.912;9.242;2022-07-09T00:23:18;100256.38;;;26.73
64624;BMP280;51031;50.912;9.242;2022-07-09T00:23:34;100258.22;;;26.72
64624;BMP280;51031;50.912;9.242;2022-07-09T00:23:50;100258.22;;;26.72
64624;BMP280;51031;50.912;9.242;2022-07-09T00:24:07;100255.53;;;26.72
64624;BMP280;51031;50.912;9.242;2022-07-09T00:24:22;100259.06;;;26.73
64624;BMP280;51031;50.912;9.242;2022-07-09T00:24:38;100252.00;;;26.72
64624;BMP280;51031;50.912;9.242;2022-07-09T00:24:54;100252.84;;;26.72
64624;BMP280;51031;50.912;9.242;2022-07-09T00:25:10;100258.22;;;26.72
64624;BMP280;51031;50.912;9.242;2022-07-09T00:25:26;100257.38;;;26.72
64624;BMP280;51031;50.912;9.242;2022-07-09T00:25:42;100256.50;;;26.71
64624;BMP280;51031;50.912;9.242;2022-07-09T00:25:58;100256.50;;;26.71
64624;BMP280;51031;50.912;9.242;2022-07-09T00:26:14;100250.16;;;26.72
64624;BMP280;51031;50.912;9.242;2022-07-09T00:26:31;100251.13;;;26.71
64624;BMP280;51031;50.912;9.242;2022-07-09T00:26:47;100251.13;;;26.71
64624;BMP280;51031;50.912;9.242;2022-07-09T00:27:05;100256.50;;;26.71
64624;BMP280;51031;50.912;9.242;2022-07-09T00:27:20;100259.19;;;26.71
64624;BMP280;51031;50.912;9.242;2022-07-09T00:27:36;100261.88;;;26.71
64624;BMP280;51031;50.912;9.242;2022-07-09T00:27:52;100257.38;;;26.72
64624;BMP280;51031;50.912;9.242;2022-07-09T00:28:10;100256.50;;;26.71
64624;BMP280;51031;50.912;9.242;2022-07-09T00:28:26;100252.00;;;26.72
64624;BMP280;51031;50.912;9.242;2022-07-09T00:28:43;100257.38;;;26.72
64624;BMP280;51031;50.912;9.242;2022-07-09T00:29:00;100257.38;;;26.72
64624;BMP280;51031;50.912;9.242;2022-07-09T00:29:16;100258.22;;;26.72
64624;BMP280;51031;50.912;9.242;2022-07-09T00:29:32;100254.69;;;26.72
64624;BMP280;51031;50.912;9.242;2022-07-09T00:29:47;100251.13;;;26.71
64624;BMP280;51031;50.912;9.242;2022-07-09T00:30:04;100251.13;;;26.71
64624;BMP280;51031;50.912;9.242;2022-07-09T00:30:23;100260.91;;;26.72
64624;BMP280;51031;50.912;9.242;2022-07-09T00:30:39;100252.84;;;26.72
64624;BMP280;51031;50.912;9.242;2022-07-09T00:30:55;100254.53;;;26.73
64624;BMP280;51031;50.912;9.242;2022-07-09T00:31:11;100252.84;;;26.72
64624;BMP280;51031;50.912;9.242;2022-07-09T00:31:27;100252.84;;;26.72
64624;BMP280;51031;50.912;9.242;2022-07-09T00:31:43;100254.53;;;26.73
64624;BMP280;51031;50.912;9.242;2022-07-09T00:32:04;100254.53;;;26.73
64624;BMP280;51031;50.912;9.242;2022-07-09T00:32:23;100255.38;;;26.73
64624;BMP280;51031;50.912;9.242;2022-07-09T00:32:39;100253.69;;;26.73
64624;BMP280;51031;50.912;9.242;2022-07-09T00:32:54;100249.16;;;26.73
64624;BMP280;51031;50.912;9.242;2022-07-09T00:33:12;100249.97;;;26.73
64624;BMP280;51031;50.912;9.242;2022-07-09T00:33:28;100258.06;;;26.73
64624;BMP280;51031;50.912;9.242;2022-07-09T00:33:44;100259.91;;;26.73
64624;BMP280;51031;50.912;9.242;2022-07-09T00:34:00;100253.50;;;26.74
64624;BMP280;51031;50.912;9.242;2022-07-09T00:34:16;100254.53;;;26.73
64624;BMP280;51031;50.912;9.242;2022-07-09T00:34:32;100254.53;;;26.73
64624;BMP280;51031;50.912;9.242;2022-07-09T00:34:49;100256.38;;;26.73
64624;BMP280;51031;50.912;9.242;2022-07-09T00:35:05;100258.88;;;26.74
64624;BMP280;51031;50.912;9.242;2022-07-09T00:35:21;100256.19;;;26.74
64624;BMP280;51031;50.912;9.242;2022-07-09T00:35:37;100255.38;;;26.73
64624;BMP280;51031;50.912;9.242;2022-07-09T00:35:53;100255.38;;;26.73
64624;BMP280;51031;50.912;9.242;2022-07-09T00:36:09;100258.88;;;26.74
64624;BMP280;51031;50.912;9.242;2022-07-09T00:36:25;100256.19;;;26.74
64624;BMP280;51031;50.912;9.242;2022-07-09T00:36:41;100258.06;;;26.73
64624;BMP280;51031;50.912;9.242;2022-07-09T00:36:57;100261.56;;;26.74
64624;BMP280;51031;50.912;9.242;2022-07-09T00:37:13;100258.06;;;26.73
64624;BMP280;51031;50.912;9.242;2022-07-09T00:37:28;100261.56;;;26.74
64624;BMP280;51031;50.912;9.242;2022-07-09T00:37:45;100260.75;;;26.73
64624;BMP280;51031;50.912;9.242;2022-07-09T00:38:01;100256.19;;;26.74
64624;BMP280;51031;50.912;9.242;2022-07-09T00:38:17;100259.72;;;26.74
64624;BMP280;51031;50.912;9.242;2022-07-09T00:38:32;100265.13;;;26.74
64624;BMP280;51031;50.912;9.242;2022-07-09T00:38:48;100258.88;;;26.74
64624;BMP280;51031;50.912;9.242;2022-07-09T00:39:04;100257.91;;;26.75
64624;BMP280;51031;50.912;9.242;2022-07-09T00:39:21;100261.44;;;26.75
64624;BMP280;51031;50.912;9.242;2022-07-09T00:39:37;100258.75;;;26.75
64624;BMP280;51031;50.912;9.242;2022-07-09T00:39:53;100255.22;;;26.75
64624;BMP280;51031;50.912;9.242;2022-07-09T00:40:09;100263.28;;;26.75
64624;BMP280;51031;50.912;9.242;2022-07-09T00:40:25;100269.50;;;26.75
64624;BMP280;51031;50.912;9.242;2022-07-09T00:40:42;100257.91;;;26.75
64624;BMP280;51031;50.912;9.242;2022-07-09T00:40:58;100260.59;;;26.75
64624;BMP280;51031;50.912;9.242;2022-07-09T00:41:14;100258.75;;;26.75
64624;BMP280;51031;50.912;9.242;2022-07-09T00:41:30;100260.59;;;26.75
64624;BMP280;51031;50.912;9.242;2022-07-09T00:41:45;100252.53;;;26.75
64624;BMP280;51031;50.912;9.242;2022-07-09T00:42:03;100263.28;;;26.75
64624;BMP280;51031;50.912;9.242;2022-07-09T00:42:19;100260.44;;;26.76
64624;BMP280;51031;50.912;9.242;2022-07-09T00:42:35;100256.91;;;26.76
64624;BMP280;51031;50.912;9.242;2022-07-09T00:42:51;100255.06;;;26.76
64624;BMP280;51031;50.912;9.242;2022-07-09T00:43:15;100258.59;;;26.77
64624;BMP280;51031;50.912;9.242;2022-07-09T00:43:32;100261.28;;;26.77
64624;BMP280;51031;50.912;9.242;2022-07-09T00:43:49;100262.13;;;26.77
64624;BMP280;51031;50.912;9.242;2022-07-09T00:44:09;100260.25;;;26.78
64624;BMP280;51031;50.912;9.242;2022-07-09T00:44:24;100251.34;;;26.77
64624;BMP280;51031;50.912;9.242;2022-07-09T00:44:40;100256.75;;;26.77
64624;BMP280;51031;50.912;9.242;2022-07-09T00:44:56;100254.06;;;26.77
64624;BMP280;51031;50.912;9.242;2022-07-09T00:45:13;100257.56;;;26.78
64624;BMP280;51031;50.912;9.242;2022-07-09T00:45:29;100260.25;;;26.78
64624;BMP280;51031;50.912;9.242;2022-07-09T00:45:45;100263.81;;;26.78
64624;BMP280;51031;50.912;9.242;2022-07-09T00:46:01;100247.69;;;26.78
64624;BMP280;51031;50.912;9.242;2022-07-09T00:46:17;100257.44;;;26.79
64624;BMP280;51031;50.912;9.242;2022-07-09T00:46:33;100259.28;;;26.79
64624;BMP280;51031;50.912;9.242;2022-07-09T00:46:50;100255.59;;;26.80
64624;BMP280;51031;50.912;9.242;2022-07-09T00:47:08;100259.13;;;26.80
64624;BMP280;51031;50.912;9.242;2022-07-09T00:47:24;100248.53;;;26.79
64624;BMP280;51031;50.912;9.242;2022-07-09T00:47:40;100256.44;;;26.80
64624;BMP280;51031;50.912;9.242;2022-07-09T00:47:55;100250.22;;;26.80
64624;BMP280;51031;50.912;9.242;2022-07-09T00:48:13;100254.59;;;26.81
64624;BMP280;51031;50.912;9.242;2022-07-09T00:48:29;100257.28;;;26.81
64624;BMP280;51031;50.912;9.242;2022-07-09T00:48:45;100257.28;;;26.81
64624;BMP280;51031;50.912;9.242;2022-07-09T00:49:01;100254.59;;;26.81
64624;BMP280;51031;50.912;9.242;2022-07-09T00:49:19;100251.91;;;26.81
64624;BMP280;51031;50.912;9.242;2022-07-09T00:49:38;100257.28;;;26.81
64624;BMP280;51031;50.912;9.242;2022-07-09T00:49:55;100259.00;;;26.82
64624;BMP280;51031;50.912;9.242;2022-07-09T00:50:11;100259.00;;;26.82
64624;BMP280;51031;50.912;9.242;2022-07-09T00:50:28;100255.28;;;26.83
64624;BMP280;51031;50.912;9.242;2022-07-09T00:50:44;100250.91;;;26.82
64624;BMP280;51031;50.912;9.242;2022-07-09T00:51:00;100248.22;;;26.82
64624;BMP280;51031;50.912;9.242;2022-07-09T00:51:17;100253.59;;;26.82
64624;BMP280;51031;50.912;9.242;2022-07-09T00:51:33;100254.44;;;26.82
64624;BMP280;51031;50.912;9.242;2022-07-09T00:51:49;100247.22;;;26.83
64624;BMP280;51031;50.912;9.242;2022-07-09T00:52:06;100254.44;;;26.82
64624;BMP280;51031;50.912;9.242;2022-07-09T00:52:22;100249.91;;;26.83
64624;BMP280;51031;50.912;9.242;2022-07-09T00:52:39;100252.59;;;26.83
64624;BMP280;51031;50.912;9.242;2022-07-09T00:52:56;100244.53;;;26.83
64624;BMP280;51031;50.912;9.242;2022-07-09T00:53:14;100248.91;;;26.84
64624;BMP280;51031;50.912;9.242;2022-07-09T00:53:30;100245.38;;;26.83
64624;BMP280;51031;50.912;9.242;2022-07-09T00:53:48;100243.53;;;26.84
64624;BMP280;51031;50.912;9.242;2022-07-09T00:54:04;100244.53;;;26.83
64624;BMP280;51031;50.912;9.242;2022-07-09T00:54:20;100242.69;;;26.83
64624;BMP280;51031;50.912;9.242;2022-07-09T00:54:37;100243.53;;;26.84
64624;BMP280;51031;50.912;9.242;2022-07-09T00:54:56;100243.53;;;26.84
64624;BMP280;51031;50.912;9.242;2022-07-09T00:55:15;100251.59;;;26.84
64624;BMP280;51031;50.912;9.242;2022-07-09T00:55:31;100235.44;;;26.84
64624;BMP280;51031;50.912;9.242;2022-07-09T00:55:47;100248.91;;;26.84
64624;BMP280;51031;50.912;9.242;2022-07-09T00:56:05;100241.66;;;26.84
64624;BMP280;51031;50.912;9.242;2022-07-09T00:56:21;100232.75;;;26.84
64624;BMP280;51031;50.912;9.242;2022-07-09T00:56:38;100241.66;;;26.84
64624;BMP280;51031;50.912;9.242;2022-07-09T00:56:54;100244.22;;;26.86
64624;BMP280;51031;50.912;9.242;2022-07-09T00:57:27;100241.53;;;26.86
64624;BMP280;51031;50.912;9.242;2022-07-09T00:57:45;100238.84;;;26.86
64624;BMP280;51031;50.912;9.242;2022-07-09T00:58:01;100240.81;;;26.84
64624;BMP280;51031;50.912;9.242;2022-07-09T00:58:18;100241.53;;;26.86
64624;BMP280;51031;50.912;9.242;2022-07-09T00:58:51;100230.91;;;26.84
64624;BMP280;51031;50.912;9.242;2022-07-09T00:59:10;100239.69;;;26.86
64624;BMP280;51031;50.912;9.242;2022-07-09T00:59:28;100238.13;;;26.84
64624;BMP280;51031;50.912;9.242;2022-07-09T01:00:00;100233.47;;;26.86
64624;BMP280;51031;50.912;9.242;2022-07-09T01:00:16;100236.16;;;26.86
64624;BMP280;51031;50.912;9.242;2022-07-09T01:00:34;100232.75;;;26.84
64624;BMP280;51031;50.912;9.242;2022-07-09T01:00:51;100237.31;;;26.83
64624;BMP280;51031;50.912;9.242;2022-07-09T01:01:07;100226.53;;;26.83
64624;BMP280;51031;50.912;9.242;2022-07-09T01:01:23;100228.38;;;26.83
64624;BMP280;51031;50.912;9.242;2022-07-09T01:01:39;100238.13;;;26.84
64624;BMP280;51031;50.912;9.242;2022-07-09T01:01:56;100238.13;;;26.84
64624;BMP280;51031;50.912;9.242;2022-07-09T01:02:11;100228.38;;;26.83
64624;BMP280;51031;50.912;9.242;2022-07-09T01:02:28;100230.06;;;26.84
64624;BMP280;51031;50.912;9.242;2022-07-09T01:02:45;100231.91;;;26.83
64624;BMP280;51031;50.912;9.242;2022-07-09T01:03:00;100228.38;;;26.83
64624;BMP280;51031;50.912;9.242;2022-07-09T01:03:16;100233.78;;;26.83
64624;BMP280;51031;50.912;9.242;2022-07-09T01:03:32;100232.09;;;26.82
64624;BMP280;51031;50.912;9.242;2022-07-09T01:03:49;100228.38;;;26.83
64624;BMP280;51031;50.912;9.242;2022-07-09T01:04:05;100232.94;;;26.82
64624;BMP280;51031;50.912;9.242;2022-07-09T01:04:21;100231.06;;;26.83
64624;BMP280;51031;50.912;9.242;2022-07-09T01:04:37;100228.53;;;26.81
64624;BMP280;51031;50.912;9.242;2022-07-09T01:04:54;100228.38;;;26.83
64624;BMP280;51031;50.912;9.242;2022-07-09T01:05:10;100228.38;;;26.83
64624;BMP280;51031;50.912;9.242;2022-07-09T01:05:27;100239.16;;;26.83
64624;BMP280;51031;50.912;9.242;2022-07-09T01:05:46;100226.72;;;26.82
64624;BMP280;51031;50.912;9.242;2022-07-09T01:06:02;100232.09;;;26.82
64624;BMP280;51031;50.912;9.242;2022-07-09T01:06:18;100226.72;;;26.82
64624;BMP280;51031;50.912;9.242;2022-07-09T01:06:34;100222.31;;;26.81
64624;BMP280;51031;50.912;9.242;2022-07-09T01:06:50;100227.69;;;26.81
64624;BMP280;51031;50.912;9.242;2022-07-09T01:07:05;100234.78;;;26.82
64624;BMP280;51031;50.912;9.242;2022-07-09T01:07:22;100233.06;;;26.81
64624;BMP280;51031;50.912;9.242;2022-07-09T01:07:38;100228.53;;;26.81
64624;BMP280;51031;50.912;9.242;2022-07-09T01:07:54;100230.38;;;26.81
64624;BMP280;51031;50.912;9.242;2022-07-09T01:08:10;100225.00;;;26.81
64624;BMP280;51031;50.912;9.242;2022-07-09T01:08:26;100224.16;;;26.80
64624;BMP280;51031;50.912;9.242;2022-07-09T01:08:42;100229.53;;;26.80
64624;BMP280;51031;50.912;9.242;2022-07-09T01:08:58;100225.00;;;26.81
64624;BMP280;51031;50.912;9.242;2022-07-09T01:09:14;100222.47;;;26.79
64624;BMP280;51031;50.912;9.242;2022-07-09T01:09:31;100230.38;;;26.81
64624;BMP280;51031;50.912;9.242;2022-07-09T01:09:47;100228.69;;;26.80
64624;BMP280;51031;50.912;9.242;2022-07-09T01:10:03;100229.53;;;26.80
64624;BMP280;51031;50.912;9.242;2022-07-09T01:10:20;100228.69;;;26.80
64624;BMP280;51031;50.912;9.242;2022-07-09T01:10:36;100229.69;;;26.79
64624;BMP280;51031;50.912;9.242;2022-07-09T01:10:53;100227.00;;;26.79
64624;BMP280;51031;50.912;9.242;2022-07-09T01:11:09;100229.69;;;26.79
64624;BMP280;51031;50.912;9.242;2022-07-09T01:11:24;100220.81;;;26.78
64624;BMP280;51031;50.912;9.242;2022-07-09T01:11:40;100228.69;;;26.80
64624;BMP280;51031;50.912;9.242;2022-07-09T01:11:57;100218.94;;;26.79
64624;BMP280;51031;50.912;9.242;2022-07-09T01:12:13;100226.19;;;26.78
64624;BMP280;51031;50.912;9.242;2022-07-09T01:12:30;100226.19;;;26.78
64624;BMP280;51031;50.912;9.242;2022-07-09T01:12:46;100227.00;;;26.79
64624;BMP280;51031;50.912;9.242;2022-07-09T01:13:03;100219.94;;;26.78
64624;BMP280;51031;50.912;9.242;2022-07-09T01:13:20;100226.19;;;26.78
64624;BMP280;51031;50.912;9.242;2022-07-09T01:13:36;100221.63;;;26.79
64624;BMP280;51031;50.912;9.242;2022-07-09T01:13:52;100227.00;;;26.79
64624;BMP280;51031;50.912;9.242;2022-07-09T01:14:09;100221.63;;;26.79
64624;BMP280;51031;50.912;9.242;2022-07-09T01:14:26;100225.31;;;26.78
64624;BMP280;51031;50.912;9.242;2022-07-09T01:14:42;100220.81;;;26.78
64624;BMP280;51031;50.912;9.242;2022-07-09T01:14:59;100226.19;;;26.78
64624;BMP280;51031;50.912;9.242;2022-07-09T01:15:15;100227.00;;;26.79
64624;BMP280;51031;50.912;9.242;2022-07-09T01:15:30;100220.81;;;26.78
64624;BMP280;51031;50.912;9.242;2022-07-09T01:15:46;100223.31;;;26.80
64624;BMP280;51031;50.912;9.242;2022-07-09T01:16:02;100221.63;;;26.79
64624;BMP280;51031;50.912;9.242;2022-07-09T01:16:19;100222.47;;;26.79
64624;BMP280;51031;50.912;9.242;2022-07-09T01:16:36;100214.53;;;26.78
64624;BMP280;51031;50.912;9.242;2022-07-09T01:16:59;100220.81;;;26.78
64624;BMP280;51031;50.912;9.242;2022-07-09T01:17:15;100214.53;;;26.78
64624;BMP280;51031;50.912;9.242;2022-07-09T01:17:37;100225.31;;;26.78
64624;BMP280;51031;50.912;9.242;2022-07-09T01:17:52;100225.31;;;26.78
64624;BMP280;51031;50.912;9.242;2022-07-09T01:18:11;100225.31;;;26.78
64624;BMP280;51031;50.912;9.242;2022-07-09T01:18:26;100219.09;;;26.77
64624;BMP280;51031;50.912;9.242;2022-07-09T01:18:43;100215.41;;;26.78
64624;BMP280;51031;50.912;9.242;2022-07-09T01:18:59;100214.53;;;26.78
64624;BMP280;51031;50.912;9.242;2022-07-09T01:19:15;100228.00;;;26.78
64624;BMP280;51031;50.912;9.242;2022-07-09T01:19:32;100221.63;;;26.79
64624;BMP280;51031;50.912;9.242;2022-07-09T01:19:47;100227.00;;;26.79
64624;BMP280;51031;50.912;9.242;2022-07-09T01:20:05;100224.31;;;26.79
64624;BMP280;51031;50.912;9.242;2022-07-09T01:20:24;100219.94;;;26.78
64624;BMP280;51031;50.912;9.242;2022-07-09T01:20:40;100223.50;;;26.78
64624;BMP280;51031;50.912;9.242;2022-07-09T01:20:56;100224.31;;;26.79
64624;BMP280;51031;50.912;9.242;2022-07-09T01:21:12;100218.94;;;26.79
64624;BMP280;51031;50.912;9.242;2022-07-09T01:21:28;100220.81;;;26.78
64624;BMP280;51031;50.912;9.242;2022-07-09T01:21:43;100219.78;;;26.79
64624;BMP280;51031;50.912;9.242;2022-07-09T01:22:01;100220.63;;;26.80
64624;BMP280;51031;50.912;9.242;2022-07-09T01:22:17;100218.78;;;26.80
64624;BMP280;51031;50.912;9.242;2022-07-09T01:22:33;100225.00;;;26.81
64624;BMP280;51031;50.912;9.242;2022-07-09T01:22:48;100221.47;;;26.80
64624;BMP280;51031;50.912;9.242;2022-07-09T01:23:04;100220.63;;;26.80
64624;BMP280;51031;50.912;9.242;2022-07-09T01:23:20;100217.94;;;26.80
64624;BMP280;51031;50.912;9.242;2022-07-09T01:23:37;100217.94;;;26.80
64624;BMP280;51031;50.912;9.242;2022-07-09T01:23:53;100220.63;;;26.80
64624;BMP280;51031;50.912;9.242;2022-07-09T01:24:09;100218.78;;;26.80
64624;BMP280;51031;50.912;9.242;2022-07-09T01:24:25;100217.94;;;26.80
64624;BMP280;51031;50.912;9.242;2022-07-09T01:24:41;100212.38;;;26.81
64624;BMP280;51031;50.912;9.242;2022-07-09T01:24:57;100217.94;;;26.80
64624;BMP280;51031;50.912;9.242;2022-07-09T01:25:16;100220.47;;;26.81
64624;BMP280;51031;50.912;9.242;2022-07-09T01:25:34;100218.78;;;26.80
64624;BMP280;51031;50.912;9.242;2022-07-09T01:25:53;100214.22;;;26.81
64624;BMP280;51031;50.912;9.242;2022-07-09T01:26:11;100216.94;;;26.81
64624;BMP280;51031;50.912;9.242;2022-07-09T01:26:27;100215.94;;;26.82
64624;BMP280;51031;50.912;9.242;2022-07-09T01:26:43;100222.31;;;26.81
64624;BMP280;51031;50.912;9.242;2022-07-09T01:26:59;100216.94;;;26.81
64624;BMP280;51031;50.912;9.242;2022-07-09T01:27:17;100212.38;;;26.81
64624;BMP280;51031;50.912;9.242;2022-07-09T01:27:33;100213.25;;;26.82
64624;BMP280;51031;50.912;9.242;2022-07-09T01:27:49;100211.41;;;26.82
64624;BMP280;51031;50.912;9.242;2022-07-09T01:28:07;100214.94;;;26.83
64624;BMP280;51031;50.912;9.242;2022-07-09T01:28:24;100216.78;;;26.82
64624;BMP280;51031;50.912;9.242;2022-07-09T01:28:40;100214.09;;;26.82
64624;BMP280;51031;50.912;9.242;2022-07-09T01:28:57;100212.38;;;26.81
64624;BMP280;51031;50.912;9.242;2022-07-09T01:29:13;100224.84;;;26.82
64624;BMP280;51031;50.912;9.242;2022-07-09T01:29:29;100212.38;;;26.81
64624;BMP280;51031;50.912;9.242;2022-07-09T01:29:44;100214.09;;;26.82
64624;BMP280;51031;50.912;9.242;2022-07-09T01:30:05;100223.00;;;26.83
64624;BMP280;51031;50.912;9.242;2022-07-09T01:30:23;100217.63;;;26.83
64624;BMP280;51031;50.912;9.242;2022-07-09T01:30:40;100217.75;;;26.81
64624;BMP280;51031;50.912;9.242;2022-07-09T01:30:56;100211.41;;;26.82
64624;BMP280;51031;50.912;9.242;2022-07-09T01:31:12;100213.09;;;26.83
64624;BMP280;51031;50.912;9.242;2022-07-09T01:31:29;100215.94;;;26.82
64624;BMP280;51031;50.912;9.242;2022-07-09T01:31:47;100216.63;;;26.84
64624;BMP280;51031;50.912;9.242;2022-07-09T01:32:04;100213.09;;;26.83
64624;BMP280;51031;50.912;9.242;2022-07-09T01:32:20;100216.63;;;26.84
64624;BMP280;51031;50.912;9.242;2022-07-09T01:32:36;100215.78;;;26.83
64624;BMP280;51031;50.912;9.242;2022-07-09T01:32:53;100206.88;;;26.83
64624;BMP280;51031;50.912;9.242;2022-07-09T01:33:09;100214.78;;;26.84
64624;BMP280;51031;50.912;9.242;2022-07-09T01:33:25;100219.31;;;26.84
64624;BMP280;51031;50.912;9.242;2022-07-09T01:33:41;100213.94;;;26.84
64624;BMP280;51031;50.912;9.242;2022-07-09T01:33:57;100211.25;;;26.84
64624;BMP280;51031;50.912;9.242;2022-07-09T01:34:13;100218.16;;;26.86